sensor_id;sensor_type;location;lat;lon;timestamp;temperature;humidity
1680;DHT22;838;51.794;12.258;2023-06-26T00:00:31;19.20;83.40
1680;DHT22;838;51.794;12.258;2023-06-26T00:03:07;19.20;81.80
1680;DHT22;838;51.794;12.258;2023-06-26T00:11:58;18.40;90.80
1680;DHT22;838;51.794;12.258;2023-06-26T00:14:25;18.70;90.90
1680;DHT22;838;51.794;12.258;2023-06-26T00:16:51;18.80;89.90
1680;DHT22;838;51.794;12.258;2023-06-26T00:19:17;19.00;90.00
1680;DHT22;838;51.794;12.258;2023-06-26T00:21:44;19.20;86.60
1680;DHT22;838;51.794;12.258;2023-06-26T00:24:12;19.50;83.70
1680;DHT22;838;51.794;12.258;2023-06-26T00:26:40;19.80;80.30
1680;DHT22;838;51.794;12.258;2023-06-26T00:29:06;20.00;75.50
1680;DHT22;838;51.794;12.258;2023-06-26T00:31:32;20.10;71.90
1680;DHT22;838;51.794;12.258;2023-06-26T00:34:00;20.20;69.00
1680;DHT22;838;51.794;12.258;2023-06-26T00:36:29;20.30;65.70
1680;DHT22;838;51.794;12.258;2023-06-26T00:38:56;19.90;65.70
1680;DHT22;838;51.794;12.258;2023-06-26T00:41:22;20.00;67.60
1680;DHT22;838;51.794;12.258;2023-06-26T00:43:48;19.90;71.30
1680;DHT22;838;51.794;12.258;2023-06-26T00:46:14;19.60;74.30
1680;DHT22;838;51.794;12.258;2023-06-26T00:48:42;19.40;76.90
1680;DHT22;838;51.794;12.258;2023-06-26T00:51:08;19.20;78.50
1680;DHT22;838;51.794;12.258;2023-06-26T00:53:35;19.10;79.80
1680;DHT22;838;51.794;12.258;2023-06-26T00:56:02;19.10;80.30
1680;DHT22;838;51.794;12.258;2023-06-26T00:58:28;19.30;78.00
1680;DHT22;838;51.794;12.258;2023-06-26T01:00:54;19.60;75.90
1680;DHT22;838;51.794;12.258;2023-06-26T01:03:24;19.70;72.00
1680;DHT22;838;51.794;12.258;2023-06-26T01:05:55;19.70;72.50
1680;DHT22;838;51.794;12.258;2023-06-26T01:08:23;19.70;72.70
1680;DHT22;838;51.794;12.258;2023-06-26T01:10:49;19.60;73.50
1680;DHT22;838;51.794;12.258;2023-06-26T01:13:15;19.40;76.60
1680;DHT22;838;51.794;12.258;2023-06-26T01:15:41;19.40;76.00
1680;DHT22;838;51.794;12.258;2023-06-26T01:18:07;19.30;77.50
1680;DHT22;838;51.794;12.258;2023-06-26T01:20:38;19.20;79.40
1680;DHT22;838;51.794;12.258;2023-06-26T01:23:23;19.20;78.50
1680;DHT22;838;51.794;12.258;2023-06-26T01:28:35;19.40;74.80
1680;DHT22;838;51.794;12.258;2023-06-26T01:31:03;19.50;74.30
1680;DHT22;838;51.794;12.258;2023-06-26T01:33:31;19.60;72.60
1680;DHT22;838;51.794;12.258;2023-06-26T01:35:57;19.60;73.10
1680;DHT22;838;51.794;12.258;2023-06-26T01:38:23;19.80;72.20
1680;DHT22;838;51.794;12.258;2023-06-26T01:40:50;19.80;69.70
1680;DHT22;838;51.794;12.258;2023-06-26T01:43:27;20.00;68.30
1680;DHT22;838;51.794;12.258;2023-06-26T01:46:02;20.10;66.80
1680;DHT22;838;51.794;12.258;2023-06-26T01:48:38;20.10;66.80
1680;DHT22;838;51.794;12.258;2023-06-26T01:51:06;20.20;64.30
1680;DHT22;838;51.794;12.258;2023-06-26T01:53:39;20.20;60.80
1680;DHT22;838;51.794;12.258;2023-06-26T01:56:08;20.10;59.90
1680;DHT22;838;51.794;12.258;2023-06-26T01:58:41;20.10;59.40
1680;DHT22;838;51.794;12.258;2023-06-26T02:01:11;20.00;61.00
1680;DHT22;838;51.794;12.258;2023-06-26T02:03:37;20.00;62.20
1680;DHT22;838;51.794;12.258;2023-06-26T02:06:03;20.00;62.60
1680;DHT22;838;51.794;12.258;2023-06-26T02:08:29;20.00;62.70
1680;DHT22;838;51.794;12.258;2023-06-26T02:10:55;20.00;59.50
1680;DHT22;838;51.794;12.258;2023-06-26T02:13:21;20.00;57.60
1680;DHT22;838;51.794;12.258;2023-06-26T02:15:46;19.80;58.00
1680;DHT22;838;51.794;12.258;2023-06-26T02:18:12;19.50;62.10
1680;DHT22;838;51.794;12.258;2023-06-26T02:20:43;19.20;66.50
1680;DHT22;838;51.794;12.258;2023-06-26T02:23:09;18.90;72.10
1680;DHT22;838;51.794;12.258;2023-06-26T02:25:43;18.80;72.20
1680;DHT22;838;51.794;12.258;2023-06-26T02:28:11;18.50;75.70
1680;DHT22;838;51.794;12.258;2023-06-26T02:30:37;18.40;74.00
1680;DHT22;838;51.794;12.258;2023-06-26T02:33:03;18.30;73.40
1680;DHT22;838;51.794;12.258;2023-06-26T02:35:29;18.00;78.20
1680;DHT22;838;51.794;12.258;2023-06-26T02:37:56;17.70;81.20
1680;DHT22;838;51.794;12.258;2023-06-26T02:40:22;17.40;86.10
1680;DHT22;838;51.794;12.258;2023-06-26T02:42:48;17.20;90.10
1680;DHT22;838;51.794;12.258;2023-06-26T02:45:13;17.30;91.00
1680;DHT22;838;51.794;12.258;2023-06-26T02:47:39;17.40;91.20
1680;DHT22;838;51.794;12.258;2023-06-26T02:50:07;17.60;90.90
1680;DHT22;838;51.794;12.258;2023-06-26T02:52:33;17.70;90.60
1680;DHT22;838;51.794;12.258;2023-06-26T02:55:01;18.00;88.70
1680;DHT22;838;51.794;12.258;2023-06-26T02:57:28;18.30;85.70
1680;DHT22;838;51.794;12.258;2023-06-26T02:59:54;18.60;80.50
1680;DHT22;838;51.794;12.258;2023-06-26T03:02:20;18.70;75.90
1680;DHT22;838;51.794;12.258;2023-06-26T03:04:46;18.50;76.30
1680;DHT22;838;51.794;12.258;2023-06-26T03:07:15;18.50;76.90
1680;DHT22;838;51.794;12.258;2023-06-26T03:09:41;18.50;76.10
1680;DHT22;838;51.794;12.258;2023-06-26T03:12:08;18.50;74.20
1680;DHT22;838;51.794;12.258;2023-06-26T03:14:33;18.40;73.20
1680;DHT22;838;51.794;12.258;2023-06-26T03:16:59;18.00;75.80
1680;DHT22;838;51.794;12.258;2023-06-26T03:19:29;17.60;81.50
1680;DHT22;838;51.794;12.258;2023-06-26T03:21:55;17.30;86.60
1680;DHT22;838;51.794;12.258;2023-06-26T03:24:20;17.20;89.00
1680;DHT22;838;51.794;12.258;2023-06-26T03:26:46;17.00;90.30
1680;DHT22;838;51.794;12.258;2023-06-26T03:29:12;16.90;90.90
1680;DHT22;838;51.794;12.258;2023-06-26T03:31:37;16.90;91.40
1680;DHT22;838;51.794;12.258;2023-06-26T03:34:03;16.90;91.60
1680;DHT22;838;51.794;12.258;2023-06-26T03:36:29;16.90;91.70
1680;DHT22;838;51.794;12.258;2023-06-26T03:38:54;16.80;92.10
1680;DHT22;838;51.794;12.258;2023-06-26T03:41:23;16.80;92.80
1680;DHT22;838;51.794;12.258;2023-06-26T03:43:49;16.70;93.20
1680;DHT22;838;51.794;12.258;2023-06-26T03:46:16;16.70;93.60
1680;DHT22;838;51.794;12.258;2023-06-26T03:48:41;16.70;94.10
1680;DHT22;838;51.794;12.258;2023-06-26T03:51:07;16.80;94.20
1680;DHT22;838;51.794;12.258;2023-06-26T03:53:33;16.90;94.10
1680;DHT22;838;51.794;12.258;2023-06-26T03:55:59;17.00;94.00
1680;DHT22;838;51.794;12.258;2023-06-26T03:58:25;17.10;93.80
1680;DHT22;838;51.794;12.258;2023-06-26T04:00:51;17.20;93.40
1680;DHT22;838;51.794;12.258;2023-06-26T04:03:17;17.30;93.20
1680;DHT22;838;51.794;12.258;2023-06-26T04:05:43;17.40;92.90
1680;DHT22;838;51.794;12.258;2023-06-26T04:08:10;17.50;92.70
1680;DHT22;838;51.794;12.258;2023-06-26T04:10:36;17.60;92.40
1680;DHT22;838;51.794;12.258;2023-06-26T04:13:02;17.80;92.40
1680;DHT22;838;51.794;12.258;2023-06-26T04:15:28;17.90;91.70
1680;DHT22;838;51.794;12.258;2023-06-26T04:17:54;17.80;91.60
1680;DHT22;838;51.794;12.258;2023-06-26T04:20:19;17.80;92.00
1680;DHT22;838;51.794;12.258;2023-06-26T04:22:45;18.00;92.40
1680;DHT22;838;51.794;12.258;2023-06-26T04:25:14;18.30;92.20
1680;DHT22;838;51.794;12.258;2023-06-26T04:27:40;18.60;91.50
1680;DHT22;838;51.794;12.258;2023-06-26T04:30:06;18.90;90.10
1680;DHT22;838;51.794;12.258;2023-06-26T04:32:32;19.10;88.40
1680;DHT22;838;51.794;12.258;2023-06-26T04:34:58;19.20;86.70
1680;DHT22;838;51.794;12.258;2023-06-26T04:37:23;19.30;86.80
1680;DHT22;838;51.794;12.258;2023-06-26T04:39:50;19.20;87.00
1680;DHT22;838;51.794;12.258;2023-06-26T04:42:16;19.30;87.50
1680;DHT22;838;51.794;12.258;2023-06-26T04:44:42;19.30;88.30
1680;DHT22;838;51.794;12.258;2023-06-26T04:47:11;19.30;89.10
1680;DHT22;838;51.794;12.258;2023-06-26T04:49:37;19.30;90.30
1680;DHT22;838;51.794;12.258;2023-06-26T04:52:02;19.40;90.30
1680;DHT22;838;51.794;12.258;2023-06-26T04:54:29;19.40;89.70
1680;DHT22;838;51.794;12.258;2023-06-26T04:56:55;19.50;90.40
1680;DHT22;838;51.794;12.258;2023-06-26T04:59:20;19.60;89.40
1680;DHT22;838;51.794;12.258;2023-06-26T05:01:46;19.70;89.90
1680;DHT22;838;51.794;12.258;2023-06-26T05:04:14;19.80;88.80
1680;DHT22;838;51.794;12.258;2023-06-26T05:06:40;19.90;86.50
1680;DHT22;838;51.794;12.258;2023-06-26T05:09:07;20.00;86.80
1680;DHT22;838;51.794;12.258;2023-06-26T05:11:35;20.10;85.70
1680;DHT22;838;51.794;12.258;2023-06-26T05:14:01;20.30;86.30
1680;DHT22;838;51.794;12.258;2023-06-26T05:16:27;20.40;85.10
1680;DHT22;838;51.794;12.258;2023-06-26T05:18:53;20.40;84.30
1680;DHT22;838;51.794;12.258;2023-06-26T05:21:20;20.50;83.80
1680;DHT22;838;51.794;12.258;2023-06-26T05:23:46;20.60;81.70
1680;DHT22;838;51.794;12.258;2023-06-26T05:26:12;20.70;78.60
1680;DHT22;838;51.794;12.258;2023-06-26T05:28:51;20.80;81.20
1680;DHT22;838;51.794;12.258;2023-06-26T05:31:17;21.10;79.10
1680;DHT22;838;51.794;12.258;2023-06-26T05:33:44;21.30;77.20
1680;DHT22;838;51.794;12.258;2023-06-26T05:36:12;21.50;72.30
1680;DHT22;838;51.794;12.258;2023-06-26T05:38:44;21.60;70.70
1680;DHT22;838;51.794;12.258;2023-06-26T05:41:10;21.80;68.10
1680;DHT22;838;51.794;12.258;2023-06-26T05:43:36;22.00;67.00
1680;DHT22;838;51.794;12.258;2023-06-26T05:46:02;22.20;66.80
1680;DHT22;838;51.794;12.258;2023-06-26T05:48:28;22.40;63.30
1680;DHT22;838;51.794;12.258;2023-06-26T05:50:54;22.50;57.10
1680;DHT22;838;51.794;12.258;2023-06-26T05:53:20;22.90;55.50
1680;DHT22;838;51.794;12.258;2023-06-26T05:55:46;23.10;51.50
1680;DHT22;838;51.794;12.258;2023-06-26T05:58:14;23.20;50.50
1680;DHT22;838;51.794;12.258;2023-06-26T06:00:41;23.40;44.50
1680;DHT22;838;51.794;12.258;2023-06-26T06:03:10;23.60;45.00
1680;DHT22;838;51.794;12.258;2023-06-26T06:05:36;23.60;40.20
1680;DHT22;838;51.794;12.258;2023-06-26T06:08:02;23.80;39.80
1680;DHT22;838;51.794;12.258;2023-06-26T06:10:27;23.80;35.70
1680;DHT22;838;51.794;12.258;2023-06-26T06:12:53;23.80;37.40
1680;DHT22;838;51.794;12.258;2023-06-26T06:15:20;23.80;37.00
1680;DHT22;838;51.794;12.258;2023-06-26T06:17:45;23.90;38.00
1680;DHT22;838;51.794;12.258;2023-06-26T06:20:11;23.90;37.40
1680;DHT22;838;51.794;12.258;2023-06-26T06:22:38;23.80;38.00
1680;DHT22;838;51.794;12.258;2023-06-26T06:25:04;23.70;36.30
1680;DHT22;838;51.794;12.258;2023-06-26T06:27:30;23.70;33.80
1680;DHT22;838;51.794;12.258;2023-06-26T06:29:56;23.90;33.00
1680;DHT22;838;51.794;12.258;2023-06-26T06:32:22;24.00;35.80
1680;DHT22;838;51.794;12.258;2023-06-26T06:34:48;23.80;34.00
1680;DHT22;838;51.794;12.258;2023-06-26T06:37:14;23.90;34.80
1680;DHT22;838;51.794;12.258;2023-06-26T06:39:39;24.40;27.90
1680;DHT22;838;51.794;12.258;2023-06-26T06:42:06;25.40;21.00
1680;DHT22;838;51.794;12.258;2023-06-26T06:44:31;25.80;15.40
1680;DHT22;838;51.794;12.258;2023-06-26T06:46:57;25.60;18.80
1680;DHT22;838;51.794;12.258;2023-06-26T06:49:23;25.30;20.00
1680;DHT22;838;51.794;12.258;2023-06-26T06:51:49;25.00;21.40
1680;DHT22;838;51.794;12.258;2023-06-26T06:54:16;24.90;19.50
1680;DHT22;838;51.794;12.258;2023-06-26T06:56:42;24.70;20.80
1680;DHT22;838;51.794;12.258;2023-06-26T06:59:08;24.60;23.60
1680;DHT22;838;51.794;12.258;2023-06-26T07:01:34;24.70;22.90
1680;DHT22;838;51.794;12.258;2023-06-26T07:04:00;25.00;23.20
1680;DHT22;838;51.794;12.258;2023-06-26T07:06:25;25.00;18.80
1680;DHT22;838;51.794;12.258;2023-06-26T07:09:07;25.00;21.20
1680;DHT22;838;51.794;12.258;2023-06-26T07:11:33;25.20;20.90
1680;DHT22;838;51.794;12.258;2023-06-26T07:13:59;25.30;17.80
1680;DHT22;838;51.794;12.258;2023-06-26T07:16:25;25.40;16.10
1680;DHT22;838;51.794;12.258;2023-06-26T07:18:51;25.30;16.10
1680;DHT22;838;51.794;12.258;2023-06-26T07:21:17;25.30;18.90
1680;DHT22;838;51.794;12.258;2023-06-26T07:23:43;25.60;13.90
1680;DHT22;838;51.794;12.258;2023-06-26T07:26:14;25.70;13.50
1680;DHT22;838;51.794;12.258;2023-06-26T07:28:41;25.90;11.40
1680;DHT22;838;51.794;12.258;2023-06-26T07:31:07;26.30;9.40
1680;DHT22;838;51.794;12.258;2023-06-26T07:33:33;26.60;9.70
1680;DHT22;838;51.794;12.258;2023-06-26T07:35:58;26.70;6.00
1680;DHT22;838;51.794;12.258;2023-06-26T07:38:24;26.90;7.40
1680;DHT22;838;51.794;12.258;2023-06-26T07:40:59;27.30;4.70
1680;DHT22;838;51.794;12.258;2023-06-26T07:43:25;27.50;1.00
1680;DHT22;838;51.794;12.258;2023-06-26T07:45:53;27.30;3.00
1680;DHT22;838;51.794;12.258;2023-06-26T07:48:22;27.10;3.00
1680;DHT22;838;51.794;12.258;2023-06-26T07:50:48;27.10;3.30
1680;DHT22;838;51.794;12.258;2023-06-26T07:53:21;27.30;5.60
1680;DHT22;838;51.794;12.258;2023-06-26T07:55:50;27.50;1.00
1680;DHT22;838;51.794;12.258;2023-06-26T07:58:16;27.70;1.00
1680;DHT22;838;51.794;12.258;2023-06-26T08:00:42;27.20;1.00
1680;DHT22;838;51.794;12.258;2023-06-26T08:03:08;27.20;1.00
1680;DHT22;838;51.794;12.258;2023-06-26T08:05:33;27.60;1.00
1680;DHT22;838;51.794;12.258;2023-06-26T08:07:59;28.40;1.00
1680;DHT22;838;51.794;12.258;2023-06-26T08:10:30;28.60;1.00
1680;DHT22;838;51.794;12.258;2023-06-26T08:13:02;28.40;1.00
1680;DHT22;838;51.794;12.258;2023-06-26T08:15:31;28.50;1.00
1680;DHT22;838;51.794;12.258;2023-06-26T08:18:00;28.00;1.00
1680;DHT22;838;51.794;12.258;2023-06-26T08:20:31;28.00;1.00
1680;DHT22;838;51.794;12.258;2023-06-26T08:23:03;28.00;1.00
1680;DHT22;838;51.794;12.258;2023-06-26T08:25:41;28.30;1.00
1680;DHT22;838;51.794;12.258;2023-06-26T08:28:10;28.00;1.00
1680;DHT22;838;51.794;12.258;2023-06-26T08:30:36;27.90;1.00
1680;DHT22;838;51.794;12.258;2023-06-26T08:33:02;27.90;1.00
1680;DHT22;838;51.794;12.258;2023-06-26T08:35:31;28.10;1.00
1680;DHT22;838;51.794;12.258;2023-06-26T08:37:59;28.60;1.00
1680;DHT22;838;51.794;12.258;2023-06-26T08:40:25;28.80;1.00
1680;DHT22;838;51.794;12.258;2023-06-26T08:42:52;28.70;1.00
1680;DHT22;838;51.794;12.258;2023-06-26T08:45:19;28.50;1.00
1680;DHT22;838;51.794;12.258;2023-06-26T08:47:45;28.50;1.00
1680;DHT22;838;51.794;12.258;2023-06-26T08:50:17;28.60;1.00
1680;DHT22;838;51.794;12.258;2023-06-26T08:53:04;28.60;1.00
1680;DHT22;838;51.794;12.258;2023-06-26T08:55:33;28.50;1.00
1680;DHT22;838;51.794;12.258;2023-06-26T08:58:04;28.70;1.00
1680;DHT22;838;51.794;12.258;2023-06-26T09:00:42;28.90;1.00
1680;DHT22;838;51.794;12.258;2023-06-26T09:03:17;28.90;1.00
1680;DHT22;838;51.794;12.258;2023-06-26T09:06:02;28.90;1.00
1680;DHT22;838;51.794;12.258;2023-06-26T09:08:28;29.20;1.00
1680;DHT22;838;51.794;12.258;2023-06-26T09:10:57;29.20;1.00
1680;DHT22;838;51.794;12.258;2023-06-26T09:13:33;29.20;1.00
1680;DHT22;838;51.794;12.258;2023-06-26T09:19:10;29.90;1.00
1680;DHT22;838;51.794;12.258;2023-06-26T09:27:36;34.40;1.00
1680;DHT22;838;51.794;12.258;2023-06-26T09:30:03;35.20;1.00
1680;DHT22;838;51.794;12.258;2023-06-26T09:32:55;36.10;1.00
1680;DHT22;838;51.794;12.258;2023-06-26T09:35:25;37.50;1.00
1680;DHT22;838;51.794;12.258;2023-06-26T09:37:57;38.70;1.00
1680;DHT22;838;51.794;12.258;2023-06-26T09:40:23;38.10;1.00
1680;DHT22;838;51.794;12.258;2023-06-26T09:43:22;38.30;1.00
1680;DHT22;838;51.794;12.258;2023-06-26T09:46:01;39.00;1.00
1680;DHT22;838;51.794;12.258;2023-06-26T09:48:40;40.20;1.00
1680;DHT22;838;51.794;12.258;2023-06-26T09:54:23;38.70;1.00
1680;DHT22;838;51.794;12.258;2023-06-26T09:56:49;38.20;1.00
1680;DHT22;838;51.794;12.258;2023-06-26T09:59:22;36.90;1.00
1680;DHT22;838;51.794;12.258;2023-06-26T10:01:58;35.80;1.00
1680;DHT22;838;51.794;12.258;2023-06-26T10:04:35;35.70;1.00
1680;DHT22;838;51.794;12.258;2023-06-26T10:07:03;36.10;1.00
1680;DHT22;838;51.794;12.258;2023-06-26T10:09:33;36.70;1.00
1680;DHT22;838;51.794;12.258;2023-06-26T10:12:28;36.50;1.00
1680;DHT22;838;51.794;12.258;2023-06-26T10:15:00;35.60;1.00
1680;DHT22;838;51.794;12.258;2023-06-26T10:17:30;34.50;1.00
1680;DHT22;838;51.794;12.258;2023-06-26T10:20:18;33.90;1.00
1680;DHT22;838;51.794;12.258;2023-06-26T10:26:44;33.00;1.00
1680;DHT22;838;51.794;12.258;2023-06-26T10:29:29;33.30;1.00
1680;DHT22;838;51.794;12.258;2023-06-26T10:32:03;33.50;1.00
1680;DHT22;838;51.794;12.258;2023-06-26T10:34:30;33.40;1.00
1680;DHT22;838;51.794;12.258;2023-06-26T10:37:10;33.20;1.00
1680;DHT22;838;51.794;12.258;2023-06-26T10:40:45;33.30;1.00
1680;DHT22;838;51.794;12.258;2023-06-26T10:43:07;33.20;1.00
1680;DHT22;838;51.794;12.258;2023-06-26T10:45:54;33.30;1.00
1680;DHT22;838;51.794;12.258;2023-06-26T10:48:29;33.20;1.00
1680;DHT22;838;51.794;12.258;2023-06-26T10:51:33;33.10;1.00
1680;DHT22;838;51.794;12.258;2023-06-26T10:54:16;33.20;1.00
1680;DHT22;838;51.794;12.258;2023-06-26T10:57:08;33.30;1.00
1680;DHT22;838;51.794;12.258;2023-06-26T11:00:28;33.50;1.00
1680;DHT22;838;51.794;12.258;2023-06-26T11:03:13;33.70;1.00
1680;DHT22;838;51.794;12.258;2023-06-26T11:05:43;33.80;1.00
1680;DHT22;838;51.794;12.258;2023-06-26T11:11:21;33.80;1.00
1680;DHT22;838;51.794;12.258;2023-06-26T11:14:11;33.80;1.00
1680;DHT22;838;51.794;12.258;2023-06-26T11:16:52;33.70;1.00
1680;DHT22;838;51.794;12.258;2023-06-26T11:22:29;33.50;1.00
1680;DHT22;838;51.794;12.258;2023-06-26T11:25:03;33.60;1.00
1680;DHT22;838;51.794;12.258;2023-06-26T11:27:55;33.70;1.00
1680;DHT22;838;51.794;12.258;2023-06-26T11:30:38;33.50;1.00
1680;DHT22;838;51.794;12.258;2023-06-26T11:33:10;33.60;1.00
1680;DHT22;838;51.794;12.258;2023-06-26T11:35:36;33.90;1.00
1680;DHT22;838;51.794;12.258;2023-06-26T11:38:06;34.20;1.00
1680;DHT22;838;51.794;12.258;2023-06-26T11:40:38;34.60;1.00
1680;DHT22;838;51.794;12.258;2023-06-26T11:43:04;34.60;1.00
1680;DHT22;838;51.794;12.258;2023-06-26T11:45:33;34.60;1.00
1680;DHT22;838;51.794;12.258;2023-06-26T11:48:02;34.70;1.00
1680;DHT22;838;51.794;12.258;2023-06-26T11:50:40;34.70;1.00
1680;DHT22;838;51.794;12.258;2023-06-26T11:53:42;34.70;1.00
1680;DHT22;838;51.794;12.258;2023-06-26T11:56:35;34.50;1.00
1680;DHT22;838;51.794;12.258;2023-06-26T11:59:53;34.70;1.00
1680;DHT22;838;51.794;12.258;2023-06-26T12:02:41;34.90;1.00
1680;DHT22;838;51.794;12.258;2023-06-26T12:05:34;35.00;1.00
1680;DHT22;838;51.794;12.258;2023-06-26T12:08:00;34.80;1.00
1680;DHT22;838;51.794;12.258;2023-06-26T12:10:38;34.40;1.00
1680;DHT22;838;51.794;12.258;2023-06-26T12:13:21;34.60;1.00
1680;DHT22;838;51.794;12.258;2023-06-26T12:15:48;34.60;1.00
1680;DHT22;838;51.794;12.258;2023-06-26T12:18:25;34.60;1.00
1680;DHT22;838;51.794;12.258;2023-06-26T12:20:52;34.20;1.00
1680;DHT22;838;51.794;12.258;2023-06-26T12:23:18;34.20;1.00
1680;DHT22;838;51.794;12.258;2023-06-26T12:25:46;34.20;1.00
1680;DHT22;838;51.794;12.258;2023-06-26T12:28:20;34.30;1.00
1680;DHT22;838;51.794;12.258;2023-06-26T12:31:16;34.30;1.00
1680;DHT22;838;51.794;12.258;2023-06-26T12:33:52;34.30;1.00
1680;DHT22;838;51.794;12.258;2023-06-26T12:36:21;34.40;1.00
1680;DHT22;838;51.794;12.258;2023-06-26T12:38:54;34.60;1.00
1680;DHT22;838;51.794;12.258;2023-06-26T12:41:24;34.60;1.00
1680;DHT22;838;51.794;12.258;2023-06-26T12:44:04;34.80;1.00
1680;DHT22;838;51.794;12.258;2023-06-26T12:46:41;34.70;1.00
1680;DHT22;838;51.794;12.258;2023-06-26T12:49:17;34.60;1.00
1680;DHT22;838;51.794;12.258;2023-06-26T12:51:46;34.60;1.00
1680;DHT22;838;51.794;12.258;2023-06-26T12:54:13;34.60;1.00
1680;DHT22;838;51.794;12.258;2023-06-26T12:56:42;34.70;1.00
1680;DHT22;838;51.794;12.258;2023-06-26T12:59:14;34.90;1.00
1680;DHT22;838;51.794;12.258;2023-06-26T13:01:46;35.10;1.00
1680;DHT22;838;51.794;12.258;2023-06-26T13:04:35;35.10;1.00
1680;DHT22;838;51.794;12.258;2023-06-26T13:07:13;35.00;1.00
1680;DHT22;838;51.794;12.258;2023-06-26T13:10:03;34.80;1.00
1680;DHT22;838;51.794;12.258;2023-06-26T13:15:35;34.40;1.00
1680;DHT22;838;51.794;12.258;2023-06-26T13:21:51;33.00;1.00
1680;DHT22;838;51.794;12.258;2023-06-26T13:27:15;30.90;1.00
1680;DHT22;838;51.794;12.258;2023-06-26T13:30:00;30.10;1.00
1680;DHT22;838;51.794;12.258;2023-06-26T13:32:30;29.70;1.00
1680;DHT22;838;51.794;12.258;2023-06-26T13:34:58;29.50;1.00
1680;DHT22;838;51.794;12.258;2023-06-26T13:37:24;28.50;6.60
1680;DHT22;838;51.794;12.258;2023-06-26T13:39:52;27.40;20.00
1680;DHT22;838;51.794;12.258;2023-06-26T13:42:18;26.30;35.90
1680;DHT22;838;51.794;12.258;2023-06-26T13:44:44;25.50;57.80
1680;DHT22;838;51.794;12.258;2023-06-26T13:47:16;24.70;80.40
1680;DHT22;838;51.794;12.258;2023-06-26T13:49:52;24.10;84.50
1680;DHT22;838;51.794;12.258;2023-06-26T13:52:21;23.70;85.40
1680;DHT22;838;51.794;12.258;2023-06-26T13:57:20;23.40;77.00
1680;DHT22;838;51.794;12.258;2023-06-26T13:59:48;23.50;81.60
1680;DHT22;838;51.794;12.258;2023-06-26T14:02:23;23.30;81.70
1680;DHT22;838;51.794;12.258;2023-06-26T14:04:52;23.20;79.20
1680;DHT22;838;51.794;12.258;2023-06-26T14:07:18;23.30;79.90
1680;DHT22;838;51.794;12.258;2023-06-26T14:09:47;23.30;79.40
1680;DHT22;838;51.794;12.258;2023-06-26T14:12:19;23.30;79.80
1680;DHT22;838;51.794;12.258;2023-06-26T14:14:47;23.20;81.20
1680;DHT22;838;51.794;12.258;2023-06-26T14:17:13;23.30;80.90
1680;DHT22;838;51.794;12.258;2023-06-26T14:19:44;23.40;81.90
1680;DHT22;838;51.794;12.258;2023-06-26T14:22:13;23.60;82.00
1680;DHT22;838;51.794;12.258;2023-06-26T14:24:39;23.70;83.70
1680;DHT22;838;51.794;12.258;2023-06-26T14:27:05;23.90;83.60
1680;DHT22;838;51.794;12.258;2023-06-26T14:29:31;23.90;79.40
1680;DHT22;838;51.794;12.258;2023-06-26T14:31:57;24.00;81.90
1680;DHT22;838;51.794;12.258;2023-06-26T14:34:26;24.10;82.50
1680;DHT22;838;51.794;12.258;2023-06-26T14:36:56;23.70;83.90
1680;DHT22;838;51.794;12.258;2023-06-26T14:39:28;23.50;81.00
1680;DHT22;838;51.794;12.258;2023-06-26T14:41:56;23.60;72.50
1680;DHT22;838;51.794;12.258;2023-06-26T14:44:22;23.80;71.40
1680;DHT22;838;51.794;12.258;2023-06-26T14:46:48;24.30;70.00
1680;DHT22;838;51.794;12.258;2023-06-26T14:49:16;24.50;52.30
1680;DHT22;838;51.794;12.258;2023-06-26T14:51:42;24.70;44.40
1680;DHT22;838;51.794;12.258;2023-06-26T14:54:09;24.70;44.10
1680;DHT22;838;51.794;12.258;2023-06-26T14:56:35;24.70;43.40
1680;DHT22;838;51.794;12.258;2023-06-26T14:59:00;24.60;39.80
1680;DHT22;838;51.794;12.258;2023-06-26T15:01:29;24.80;42.80
1680;DHT22;838;51.794;12.258;2023-06-26T15:03:59;25.10;39.70
1680;DHT22;838;51.794;12.258;2023-06-26T15:06:28;25.30;32.40
1680;DHT22;838;51.794;12.258;2023-06-26T15:08:56;25.50;32.20
1680;DHT22;838;51.794;12.258;2023-06-26T15:11:30;25.70;36.10
1680;DHT22;838;51.794;12.258;2023-06-26T15:14:05;25.70;30.00
1680;DHT22;838;51.794;12.258;2023-06-26T15:16:31;25.30;29.20
1680;DHT22;838;51.794;12.258;2023-06-26T15:19:00;25.50;32.30
1680;DHT22;838;51.794;12.258;2023-06-26T15:21:29;25.40;32.50
1680;DHT22;838;51.794;12.258;2023-06-26T15:23:54;25.30;28.30
1680;DHT22;838;51.794;12.258;2023-06-26T15:26:20;25.10;25.20
1680;DHT22;838;51.794;12.258;2023-06-26T15:28:46;25.00;25.40
1680;DHT22;838;51.794;12.258;2023-06-26T15:31:13;24.90;26.70
1680;DHT22;838;51.794;12.258;2023-06-26T15:33:39;24.80;27.90
1680;DHT22;838;51.794;12.258;2023-06-26T15:36:09;24.70;23.90
1680;DHT22;838;51.794;12.258;2023-06-26T15:38:36;24.70;24.20
1680;DHT22;838;51.794;12.258;2023-06-26T15:41:02;24.70;26.70
1680;DHT22;838;51.794;12.258;2023-06-26T15:43:28;24.60;24.60
1680;DHT22;838;51.794;12.258;2023-06-26T15:45:54;24.60;24.80
1680;DHT22;838;51.794;12.258;2023-06-26T15:48:20;24.40;27.80
1680;DHT22;838;51.794;12.258;2023-06-26T15:50:46;23.50;47.50
1680;DHT22;838;51.794;12.258;2023-06-26T15:53:16;22.90;69.90
1680;DHT22;838;51.794;12.258;2023-06-26T15:55:58;22.40;75.00
1680;DHT22;838;51.794;12.258;2023-06-26T15:58:42;22.20;81.10
1680;DHT22;838;51.794;12.258;2023-06-26T16:01:16;22.20;83.30
1680;DHT22;838;51.794;12.258;2023-06-26T16:03:46;22.30;81.90
1680;DHT22;838;51.794;12.258;2023-06-26T16:06:15;22.30;79.90
1680;DHT22;838;51.794;12.258;2023-06-26T16:08:41;22.40;76.10
1680;DHT22;838;51.794;12.258;2023-06-26T16:11:07;22.60;69.50
1680;DHT22;838;51.794;12.258;2023-06-26T16:13:36;22.90;70.80
1680;DHT22;838;51.794;12.258;2023-06-26T16:16:02;23.20;60.50
1680;DHT22;838;51.794;12.258;2023-06-26T16:18:28;23.50;65.40
1680;DHT22;838;51.794;12.258;2023-06-26T16:20:54;23.70;61.80
1680;DHT22;838;51.794;12.258;2023-06-26T16:23:20;24.10;59.80
1680;DHT22;838;51.794;12.258;2023-06-26T16:25:46;24.10;52.00
1680;DHT22;838;51.794;12.258;2023-06-26T16:28:13;24.00;48.70
1680;DHT22;838;51.794;12.258;2023-06-26T16:30:39;24.10;52.30
1680;DHT22;838;51.794;12.258;2023-06-26T16:33:06;24.10;46.50
1680;DHT22;838;51.794;12.258;2023-06-26T16:35:32;24.20;42.80
1680;DHT22;838;51.794;12.258;2023-06-26T16:38:03;24.30;35.10
1680;DHT22;838;51.794;12.258;2023-06-26T16:40:35;24.50;38.10
1680;DHT22;838;51.794;12.258;2023-06-26T16:43:01;24.90;29.00
1680;DHT22;838;51.794;12.258;2023-06-26T16:45:27;24.90;26.70
1680;DHT22;838;51.794;12.258;2023-06-26T16:47:53;24.90;25.10
1680;DHT22;838;51.794;12.258;2023-06-26T16:50:18;25.00;16.60
1680;DHT22;838;51.794;12.258;2023-06-26T16:52:45;25.00;21.50
1680;DHT22;838;51.794;12.258;2023-06-26T16:55:11;25.00;13.90
1680;DHT22;838;51.794;12.258;2023-06-26T16:57:40;24.90;12.00
1680;DHT22;838;51.794;12.258;2023-06-26T17:00:06;25.00;12.30
1680;DHT22;838;51.794;12.258;2023-06-26T17:02:32;25.00;12.50
1680;DHT22;838;51.794;12.258;2023-06-26T17:05:07;25.00;10.20
1680;DHT22;838;51.794;12.258;2023-06-26T17:07:34;25.20;9.00